sensor_id;sensor_type;location;lat;lon;timestamp;P1;durP1;ratioP1;P2;durP2;ratioP2
66727;SDS011;53641;44.274;19.890;2022-08-02T00:01:49;5.72;;;2.30;;
66727;SDS011;53641;44.274;19.890;2022-08-02T00:04:15;2.70;;;2.28;;
66727;SDS011;53641;44.274;19.890;2022-08-02T00:06:40;6.18;;;2.90;;
66727;SDS011;53641;44.274;19.890;2022-08-02T00:09:06;5.22;;;2.67;;
66727;SDS011;53641;44.274;19.890;2022-08-02T00:11:32;3.97;;;2.45;;
66727;SDS011;53641;44.274;19.890;2022-08-02T00:13:58;7.25;;;2.35;;
66727;SDS011;53641;44.274;19.890;2022-08-02T00:16:24;4.65;;;2.63;;
66727;SDS011;53641;44.274;19.890;2022-08-02T00:18:50;3.40;;;2.60;;
66727;SDS011;53641;44.274;19.890;2022-08-02T00:21:15;4.25;;;2.40;;
66727;SDS011;53641;44.274;19.890;2022-08-02T00:23:41;4.20;;;2.55;;
66727;SDS011;53641;44.274;19.890;2022-08-02T00:26:07;5.85;;;2.55;;
66727;SDS011;53641;44.274;19.890;2022-08-02T00:28:33;3.15;;;2.47;;
66727;SDS011;53641;44.274;19.890;2022-08-02T00:30:59;3.95;;;3.08;;
66727;SDS011;53641;44.274;19.890;2022-08-02T00:33:25;4.90;;;2.75;;
66727;SDS011;53641;44.274;19.890;2022-08-02T00:35:51;3.70;;;3.03;;
66727;SDS011;53641;44.274;19.890;2022-08-02T00:38:17;5.13;;;2.90;;
66727;SDS011;53641;44.274;19.890;2022-08-02T00:40:46;3.55;;;2.50;;
66727;SDS011;53641;44.274;19.890;2022-08-02T00:43:13;5.22;;;2.75;;
66727;SDS011;53641;44.274;19.890;2022-08-02T00:45:39;5.38;;;2.80;;
66727;SDS011;53641;44.274;19.890;2022-08-02T00:48:06;5.20;;;2.72;;
66727;SDS011;53641;44.274;19.890;2022-08-02T00:50:34;3.53;;;2.90;;
66727;SDS011;53641;44.274;19.890;2022-08-02T00:53:00;6.13;;;2.95;;
66727;SDS011;53641;44.274;19.890;2022-08-02T00:55:27;6.00;;;2.90;;
66727;SDS011;53641;44.274;19.890;2022-08-02T00:57:53;4.20;;;2.97;;
66727;SDS011;53641;44.274;19.890;2022-08-02T01:00:19;5.35;;;3.22;;
66727;SDS011;53641;44.274;19.890;2022-08-02T01:02:46;4.97;;;3.70;;
66727;SDS011;53641;44.274;19.890;2022-08-02T01:05:12;5.55;;;3.47;;
66727;SDS011;53641;44.274;19.890;2022-08-02T01:07:38;9.93;;;3.75;;
66727;SDS011;53641;44.274;19.890;2022-08-02T01:10:04;4.40;;;3.40;;
66727;SDS011;53641;44.274;19.890;2022-08-02T01:12:31;5.95;;;3.08;;
66727;SDS011;53641;44.274;19.890;2022-08-02T01:15:00;4.57;;;2.78;;
66727;SDS011;53641;44.274;19.890;2022-08-02T01:17:31;8.50;;;2.55;;
66727;SDS011;53641;44.274;19.890;2022-08-02T01:20:40;5.47;;;2.95;;
66727;SDS011;53641;44.274;19.890;2022-08-02T01:23:24;4.55;;;2.40;;
66727;SDS011;53641;44.274;19.890;2022-08-02T01:26:17;5.38;;;2.45;;
66727;SDS011;53641;44.274;19.890;2022-08-02T01:29:09;7.20;;;3.13;;
66727;SDS011;53641;44.274;19.890;2022-08-02T01:31:54;5.22;;;3.20;;
66727;SDS011;53641;44.274;19.890;2022-08-02T01:34:33;5.13;;;3.70;;
66727;SDS011;53641;44.274;19.890;2022-08-02T01:37:15;6.20;;;3.80;;
66727;SDS011;53641;44.274;19.890;2022-08-02T01:39:50;5.53;;;3.53;;
66727;SDS011;53641;44.274;19.890;2022-08-02T01:42:19;6.68;;;3.20;;
66727;SDS011;53641;44.274;19.890;2022-08-02T01:44:46;5.47;;;3.03;;
66727;SDS011;53641;44.274;19.890;2022-08-02T01:47:19;5.22;;;3.22;;
66727;SDS011;53641;44.274;19.890;2022-08-02T01:49:49;4.18;;;2.63;;
66727;SDS011;53641;44.274;19.890;2022-08-02T01:52:19;7.53;;;3.58;;
66727;SDS011;53641;44.274;19.890;2022-08-02T01:55:02;6.80;;;3.10;;
66727;SDS011;53641;44.274;19.890;2022-08-02T01:57:39;4.40;;;3.05;;
66727;SDS011;53641;44.274;19.890;2022-08-02T02:00:08;5.78;;;3.10;;
66727;SDS011;53641;44.274;19.890;2022-08-02T02:02:36;5.30;;;3.50;;
66727;SDS011;53641;44.274;19.890;2022-08-02T02:05:06;5.18;;;3.22;;
66727;SDS011;53641;44.274;19.890;2022-08-02T02:07:36;4.57;;;2.90;;
66727;SDS011;53641;44.274;19.890;2022-08-02T02:10:04;3.88;;;2.60;;
66727;SDS011;53641;44.274;19.890;2022-08-02T02:12:32;6.38;;;3.00;;
66727;SDS011;53641;44.274;19.890;2022-08-02T02:15:04;6.82;;;3.10;;
66727;SDS011;53641;44.274;19.890;2022-08-02T02:17:33;5.78;;;2.88;;
66727;SDS011;53641;44.274;19.890;2022-08-02T02:20:00;3.88;;;3.00;;
66727;SDS011;53641;44.274;19.890;2022-08-02T02:22:27;6.25;;;3.47;;
66727;SDS011;53641;44.274;19.890;2022-08-02T02:24:53;5.65;;;2.92;;
66727;SDS011;53641;44.274;19.890;2022-08-02T02:27:19;5.22;;;2.78;;
66727;SDS011;53641;44.274;19.890;2022-08-02T02:29:47;4.05;;;2.72;;
66727;SDS011;53641;44.274;19.890;2022-08-02T02:32:16;4.00;;;2.60;;
66727;SDS011;53641;44.274;19.890;2022-08-02T02:34:43;3.63;;;2.67;;
66727;SDS011;53641;44.274;19.890;2022-08-02T02:37:19;3.58;;;2.40;;
66727;SDS011;53641;44.274;19.890;2022-08-02T02:39:47;5.82;;;2.83;;
66727;SDS011;53641;44.274;19.890;2022-08-02T02:42:16;5.05;;;2.72;;
66727;SDS011;53641;44.274;19.890;2022-08-02T02:44:45;5.63;;;2.90;;
66727;SDS011;53641;44.274;19.890;2022-08-02T02:47:13;5.25;;;2.95;;
66727;SDS011;53641;44.274;19.890;2022-08-02T02:49:41;3.63;;;2.22;;
66727;SDS011;53641;44.274;19.890;2022-08-02T02:52:09;4.47;;;2.88;;
66727;SDS011;53641;44.274;19.890;2022-08-02T02:54:38;3.72;;;2.78;;
66727;SDS011;53641;44.274;19.890;2022-08-02T02:57:04;3.00;;;2.60;;
66727;SDS011;53641;44.274;19.890;2022-08-02T02:59:32;4.97;;;2.70;;
66727;SDS011;53641;44.274;19.890;2022-08-02T03:01:59;3.63;;;2.53;;
66727;SDS011;53641;44.274;19.890;2022-08-02T03:04:26;4.60;;;3.25;;
66727;SDS011;53641;44.274;19.890;2022-08-02T03:06:53;5.82;;;2.95;;
66727;SDS011;53641;44.274;19.890;2022-08-02T03:09:18;10.43;;;3.58;;
66727;SDS011;53641;44.274;19.890;2022-08-02T03:11:44;6.30;;;3.35;;
66727;SDS011;53641;44.274;19.890;2022-08-02T03:14:10;4.93;;;2.97;;
66727;SDS011;53641;44.274;19.890;2022-08-02T03:16:41;6.72;;;3.50;;
66727;SDS011;53641;44.274;19.890;2022-08-02T03:19:07;6.77;;;3.10;;
66727;SDS011;53641;44.274;19.890;2022-08-02T03:21:32;3.72;;;2.75;;
66727;SDS011;53641;44.274;19.890;2022-08-02T03:23:58;5.93;;;2.97;;
66727;SDS011;53641;44.274;19.890;2022-08-02T03:26:24;4.55;;;3.15;;
66727;SDS011;53641;44.274;19.890;2022-08-02T03:28:50;7.82;;;2.80;;
66727;SDS011;53641;44.274;19.890;2022-08-02T03:31:16;4.50;;;3.08;;
66727;SDS011;53641;44.274;19.890;2022-08-02T03:33:41;8.30;;;3.45;;
66727;SDS011;53641;44.274;19.890;2022-08-02T03:36:09;6.43;;;3.05;;
66727;SDS011;53641;44.274;19.890;2022-08-02T03:38:36;3.58;;;2.95;;
66727;SDS011;53641;44.274;19.890;2022-08-02T03:41:02;6.03;;;3.33;;
66727;SDS011;53641;44.274;19.890;2022-08-02T03:43:29;5.13;;;3.13;;
66727;SDS011;53641;44.274;19.890;2022-08-02T03:45:56;4.53;;;3.17;;
66727;SDS011;53641;44.274;19.890;2022-08-02T03:48:23;6.53;;;3.38;;
66727;SDS011;53641;44.274;19.890;2022-08-02T03:50:51;7.07;;;3.65;;
66727;SDS011;53641;44.274;19.890;2022-08-02T03:53:17;6.10;;;3.35;;
66727;SDS011;53641;44.274;19.890;2022-08-02T03:55:44;7.05;;;3.65;;
66727;SDS011;53641;44.274;19.890;2022-08-02T03:58:19;6.60;;;2.72;;
66727;SDS011;53641;44.274;19.890;2022-08-02T04:00:46;7.95;;;3.88;;
66727;SDS011;53641;44.274;19.890;2022-08-02T04:03:12;5.30;;;3.38;;
66727;SDS011;53641;44.274;19.890;2022-08-02T04:05:38;3.17;;;2.75;;
66727;SDS011;53641;44.274;19.890;2022-08-02T04:08:04;4.85;;;2.80;;
66727;SDS011;53641;44.274;19.890;2022-08-02T04:10:30;8.95;;;3.35;;
66727;SDS011;53641;44.274;19.890;2022-08-02T04:13:16;5.22;;;2.85;;
66727;SDS011;53641;44.274;19.890;2022-08-02T04:15:42;5.68;;;3.00;;
66727;SDS011;53641;44.274;19.890;2022-08-02T04:18:08;7.45;;;3.25;;
66727;SDS011;53641;44.274;19.890;2022-08-02T04:20:34;4.95;;;3.42;;
66727;SDS011;53641;44.274;19.890;2022-08-02T04:23:05;6.68;;;3.08;;
66727;SDS011;53641;44.274;19.890;2022-08-02T04:25:32;4.20;;;2.95;;
66727;SDS011;53641;44.274;19.890;2022-08-02T04:27:59;6.53;;;3.35;;
66727;SDS011;53641;44.274;19.890;2022-08-02T04:30:26;5.95;;;3.20;;
66727;SDS011;53641;44.274;19.890;2022-08-02T04:32:53;6.47;;;3.03;;
66727;SDS011;53641;44.274;19.890;2022-08-02T04:35:19;7.65;;;3.28;;
66727;SDS011;53641;44.274;19.890;2022-08-02T04:37:45;13.27;;;3.53;;
66727;SDS011;53641;44.274;19.890;2022-08-02T04:40:11;6.75;;;3.20;;
66727;SDS011;53641;44.274;19.890;2022-08-02T04:42:38;7.10;;;3.67;;
66727;SDS011;53641;44.274;19.890;2022-08-02T04:45:04;7.25;;;2.97;;
66727;SDS011;53641;44.274;19.890;2022-08-02T04:47:31;7.45;;;3.10;;
66727;SDS011;53641;44.274;19.890;2022-08-02T04:49:57;8.40;;;2.85;;
66727;SDS011;53641;44.274;19.890;2022-08-02T04:52:23;8.02;;;3.45;;
66727;SDS011;53641;44.274;19.890;2022-08-02T04:54:48;7.72;;;3.28;;
66727;SDS011;53641;44.274;19.890;2022-08-02T04:57:18;4.80;;;3.53;;
66727;SDS011;53641;44.274;19.890;2022-08-02T05:00:05;5.22;;;3.30;;
66727;SDS011;53641;44.274;19.890;2022-08-02T05:02:35;7.50;;;3.15;;
66727;SDS011;53641;44.274;19.890;2022-08-02T05:05:01;4.70;;;3.13;;
66727;SDS011;53641;44.274;19.890;2022-08-02T05:07:27;6.38;;;3.67;;
66727;SDS011;53641;44.274;19.890;2022-08-02T05:09:52;5.90;;;3.40;;
66727;SDS011;53641;44.274;19.890;2022-08-02T05:12:19;5.80;;;3.20;;
66727;SDS011;53641;44.274;19.890;2022-08-02T05:14:46;8.27;;;3.67;;
66727;SDS011;53641;44.274;19.890;2022-08-02T05:17:12;9.82;;;4.00;;
66727;SDS011;53641;44.274;19.890;2022-08-02T05:19:38;5.45;;;3.15;;
66727;SDS011;53641;44.274;19.890;2022-08-02T05:22:04;6.95;;;3.15;;
66727;SDS011;53641;44.274;19.890;2022-08-02T05:24:30;4.75;;;2.97;;
66727;SDS011;53641;44.274;19.890;2022-08-02T05:26:55;7.13;;;3.67;;
66727;SDS011;53641;44.274;19.890;2022-08-02T05:29:21;9.93;;;3.10;;
66727;SDS011;53641;44.274;19.890;2022-08-02T05:31:47;7.60;;;3.50;;
66727;SDS011;53641;44.274;19.890;2022-08-02T05:34:13;8.82;;;3.28;;
66727;SDS011;53641;44.274;19.890;2022-08-02T05:36:39;11.20;;;3.33;;
66727;SDS011;53641;44.274;19.890;2022-08-02T05:39:05;4.25;;;2.70;;
66727;SDS011;53641;44.274;19.890;2022-08-02T05:41:30;8.00;;;3.22;;
66727;SDS011;53641;44.274;19.890;2022-08-02T05:43:56;7.32;;;3.85;;
66727;SDS011;53641;44.274;19.890;2022-08-02T05:46:22;13.40;;;3.28;;
66727;SDS011;53641;44.274;19.890;2022-08-02T05:48:48;10.00;;;3.67;;
66727;SDS011;53641;44.274;19.890;2022-08-02T05:51:18;8.60;;;2.80;;
66727;SDS011;53641;44.274;19.890;2022-08-02T05:53:51;13.98;;;3.25;;
66727;SDS011;53641;44.274;19.890;2022-08-02T05:56:35;9.98;;;3.45;;
66727;SDS011;53641;44.274;19.890;2022-08-02T05:59:16;10.00;;;3.95;;
66727;SDS011;53641;44.274;19.890;2022-08-02T06:01:51;5.85;;;3.13;;
66727;SDS011;53641;44.274;19.890;2022-08-02T06:04:24;3.75;;;2.50;;
66727;SDS011;53641;44.274;19.890;2022-08-02T06:06:55;8.13;;;3.08;;
66727;SDS011;53641;44.274;19.890;2022-08-02T06:09:26;3.42;;;2.65;;
66727;SDS011;53641;44.274;19.890;2022-08-02T06:11:53;3.22;;;2.50;;
66727;SDS011;53641;44.274;19.890;2022-08-02T06:14:22;4.50;;;2.53;;
66727;SDS011;53641;44.274;19.890;2022-08-02T06:16:49;3.72;;;2.70;;
66727;SDS011;53641;44.274;19.890;2022-08-02T06:19:17;7.20;;;2.40;;
66727;SDS011;53641;44.274;19.890;2022-08-02T06:21:43;3.53;;;2.20;;
66727;SDS011;53641;44.274;19.890;2022-08-02T06:24:10;3.85;;;2.03;;
66727;SDS011;53641;44.274;19.890;2022-08-02T06:26:37;4.95;;;2.53;;
66727;SDS011;53641;44.274;19.890;2022-08-02T06:29:05;5.93;;;2.42;;
66727;SDS011;53641;44.274;19.890;2022-08-02T06:31:31;7.90;;;2.45;;
66727;SDS011;53641;44.274;19.890;2022-08-02T06:33:57;3.85;;;3.03;;
66727;SDS011;53641;44.274;19.890;2022-08-02T06:36:31;4.63;;;2.58;;
66727;SDS011;53641;44.274;19.890;2022-08-02T06:39:03;4.72;;;3.22;;
66727;SDS011;53641;44.274;19.890;2022-08-02T06:41:37;7.53;;;3.08;;
66727;SDS011;53641;44.274;19.890;2022-08-02T06:44:06;4.03;;;2.50;;
66727;SDS011;53641;44.274;19.890;2022-08-02T06:46:34;3.08;;;2.25;;
66727;SDS011;53641;44.274;19.890;2022-08-02T06:49:00;4.20;;;2.13;;
66727;SDS011;53641;44.274;19.890;2022-08-02T06:51:27;5.22;;;2.20;;
66727;SDS011;53641;44.274;19.890;2022-08-02T06:53:53;7.03;;;2.08;;
66727;SDS011;53641;44.274;19.890;2022-08-02T06:56:20;2.53;;;2.03;;
66727;SDS011;53641;44.274;19.890;2022-08-02T06:58:45;5.47;;;2.33;;
66727;SDS011;53641;44.274;19.890;2022-08-02T07:01:11;3.30;;;2.10;;
66727;SDS011;53641;44.274;19.890;2022-08-02T07:03:38;5.28;;;2.03;;
66727;SDS011;53641;44.274;19.890;2022-08-02T07:06:05;5.32;;;2.17;;
66727;SDS011;53641;44.274;19.890;2022-08-02T07:08:33;4.63;;;2.25;;
66727;SDS011;53641;44.274;19.890;2022-08-02T07:11:02;4.57;;;2.40;;
66727;SDS011;53641;44.274;19.890;2022-08-02T07:13:28;2.90;;;2.30;;
66727;SDS011;53641;44.274;19.890;2022-08-02T07:15:54;3.10;;;2.20;;
66727;SDS011;53641;44.274;19.890;2022-08-02T07:18:21;4.10;;;2.30;;
66727;SDS011;53641;44.274;19.890;2022-08-02T07:20:47;5.30;;;2.30;;
66727;SDS011;53641;44.274;19.890;2022-08-02T07:23:13;3.00;;;2.35;;
66727;SDS011;53641;44.274;19.890;2022-08-02T07:25:39;3.25;;;2.55;;
66727;SDS011;53641;44.274;19.890;2022-08-02T07:28:05;2.58;;;2.20;;
66727;SDS011;53641;44.274;19.890;2022-08-02T07:30:34;3.88;;;2.60;;
66727;SDS011;53641;44.274;19.890;2022-08-02T07:33:00;2.53;;;2.33;;
66727;SDS011;53641;44.274;19.890;2022-08-02T07:35:28;4.00;;;2.30;;
66727;SDS011;53641;44.274;19.890;2022-08-02T07:37:54;3.65;;;2.40;;
66727;SDS011;53641;44.274;19.890;2022-08-02T07:40:20;2.30;;;2.10;;
66727;SDS011;53641;44.274;19.890;2022-08-02T07:42:49;5.25;;;2.50;;
66727;SDS011;53641;44.274;19.890;2022-08-02T07:45:17;2.35;;;2.15;;
66727;SDS011;53641;44.274;19.890;2022-08-02T07:47:44;4.55;;;2.60;;
66727;SDS011;53641;44.274;19.890;2022-08-02T07:50:10;4.45;;;2.60;;
66727;SDS011;53641;44.274;19.890;2022-08-02T07:52:38;3.22;;;2.40;;
66727;SDS011;53641;44.274;19.890;2022-08-02T07:55:05;3.93;;;2.60;;
66727;SDS011;53641;44.274;19.890;2022-08-02T07:57:31;3.03;;;2.40;;
66727;SDS011;53641;44.274;19.890;2022-08-02T07:59:57;2.88;;;2.30;;
66727;SDS011;53641;44.274;19.890;2022-08-02T08:02:23;4.45;;;2.45;;
66727;SDS011;53641;44.274;19.890;2022-08-02T08:04:49;5.68;;;2.30;;
66727;SDS011;53641;44.274;19.890;2022-08-02T08:25:23;3.90;;;2.30;;
66727;SDS011;53641;44.274;19.890;2022-08-02T08:27:51;4.78;;;3.03;;
66727;SDS011;53641;44.274;19.890;2022-08-02T08:30:18;5.22;;;2.67;;
66727;SDS011;53641;44.274;19.890;2022-08-02T08:32:45;3.10;;;2.80;;
66727;SDS011;53641;44.274;19.890;2022-08-02T08:35:12;6.82;;;2.90;;
66727;SDS011;53641;44.274;19.890;2022-08-02T08:37:38;4.75;;;2.67;;
66727;SDS011;53641;44.274;19.890;2022-08-02T08:40:05;3.15;;;2.40;;
66727;SDS011;53641;44.274;19.890;2022-08-02T08:42:32;2.53;;;1.90;;
66727;SDS011;53641;44.274;19.890;2022-08-02T08:45:00;4.50;;;2.30;;
66727;SDS011;53641;44.274;19.890;2022-08-02T08:47:28;3.40;;;2.47;;
66727;SDS011;53641;44.274;19.890;2022-08-02T08:49:58;2.97;;;2.17;;
66727;SDS011;53641;44.274;19.890;2022-08-02T08:52:27;2.97;;;2.00;;
66727;SDS011;53641;44.274;19.890;2022-08-02T08:54:55;5.70;;;2.37;;
66727;SDS011;53641;44.274;19.890;2022-08-02T08:57:21;8.55;;;2.67;;
66727;SDS011;53641;44.274;19.890;2022-08-02T08:59:47;4.20;;;2.30;;
66727;SDS011;53641;44.274;19.890;2022-08-02T09:02:13;3.70;;;2.10;;
66727;SDS011;53641;44.274;19.890;2022-08-02T09:04:38;7.38;;;2.15;;
66727;SDS011;53641;44.274;19.890;2022-08-02T09:07:04;3.83;;;2.40;;
66727;SDS011;53641;44.274;19.890;2022-08-02T09:09:30;2.50;;;1.80;;
66727;SDS011;53641;44.274;19.890;2022-08-02T09:12:11;5.60;;;2.20;;
66727;SDS011;53641;44.274;19.890;2022-08-02T09:14:38;2.30;;;1.80;;
66727;SDS011;53641;44.274;19.890;2022-08-02T09:17:05;2.67;;;1.48;;
66727;SDS011;53641;44.274;19.890;2022-08-02T09:19:32;2.20;;;1.60;;
66727;SDS011;53641;44.274;19.890;2022-08-02T09:22:03;4.40;;;1.63;;
66727;SDS011;53641;44.274;19.890;2022-08-02T09:24:39;3.97;;;1.98;;
66727;SDS011;53641;44.274;19.890;2022-08-02T09:27:10;4.82;;;1.90;;
66727;SDS011;53641;44.274;19.890;2022-08-02T09:29:37;3.35;;;1.88;;
66727;SDS011;53641;44.274;19.890;2022-08-02T09:32:03;2.78;;;1.30;;
66727;SDS011;53641;44.274;19.890;2022-08-02T09:34:43;2.25;;;1.52;;
66727;SDS011;53641;44.274;19.890;2022-08-02T09:37:22;4.20;;;1.90;;
66727;SDS011;53641;44.274;19.890;2022-08-02T09:39:53;2.40;;;1.50;;
66727;SDS011;53641;44.274;19.890;2022-08-02T09:42:19;3.85;;;1.42;;
66727;SDS011;53641;44.274;19.890;2022-08-02T09:44:52;5.45;;;2.20;;
66727;SDS011;53641;44.274;19.890;2022-08-02T09:47:23;2.40;;;1.23;;
66727;SDS011;53641;44.274;19.890;2022-08-02T09:49:50;6.43;;;1.52;;
66727;SDS011;53641;44.274;19.890;2022-08-02T09:52:21;2.65;;;1.27;;
66727;SDS011;53641;44.274;19.890;2022-08-02T09:54:51;2.22;;;1.08;;
66727;SDS011;53641;44.274;19.890;2022-08-02T09:57:27;3.88;;;1.17;;
66727;SDS011;53641;44.274;19.890;2022-08-02T09:59:54;2.25;;;1.20;;
66727;SDS011;53641;44.274;19.890;2022-08-02T10:02:20;3.08;;;1.17;;
66727;SDS011;53641;44.274;19.890;2022-08-02T10:04:46;1.60;;;1.20;;
66727;SDS011;53641;44.274;19.890;2022-08-02T10:07:12;2.42;;;1.27;;
66727;SDS011;53641;44.274;19.890;2022-08-02T10:09:39;4.50;;;1.30;;
66727;SDS011;53641;44.274;19.890;2022-08-02T10:12:05;4.70;;;1.58;;
66727;SDS011;53641;44.274;19.890;2022-08-02T10:14:32;4.78;;;1.48;;
66727;SDS011;53641;44.274;19.890;2022-08-02T10:16:59;2.92;;;1.60;;
66727;SDS011;53641;44.274;19.890;2022-08-02T10:19:25;4.65;;;1.40;;
66727;SDS011;53641;44.274;19.890;2022-08-02T10:22:01;2.25;;;1.05;;
66727;SDS011;53641;44.274;19.890;2022-08-02T10:24:30;2.00;;;1.30;;
66727;SDS011;53641;44.274;19.890;2022-08-02T10:26:59;3.57;;;1.27;;
66727;SDS011;53641;44.274;19.890;2022-08-02T10:29:29;2.70;;;1.25;;
66727;SDS011;53641;44.274;19.890;2022-08-02T10:32:00;1.70;;;1.15;;
66727;SDS011;53641;44.274;19.890;2022-08-02T10:34:35;3.08;;;1.27;;
66727;SDS011;53641;44.274;19.890;2022-08-02T10:37:06;4.07;;;1.30;;
66727;SDS011;53641;44.274;19.890;2022-08-02T10:39:38;2.42;;;1.05;;
66727;SDS011;53641;44.274;19.890;2022-08-02T10:42:05;1.73;;;1.02;;
66727;SDS011;53641;44.274;19.890;2022-08-02T10:44:32;3.72;;;1.20;;
66727;SDS011;53641;44.274;19.890;2022-08-02T10:47:19;2.60;;;1.40;;
66727;SDS011;53641;44.274;19.890;2022-08-02T10:49:49;3.25;;;1.25;;
66727;SDS011;53641;44.274;19.890;2022-08-02T10:52:15;2.85;;;1.23;;
66727;SDS011;53641;44.274;19.890;2022-08-02T10:54:43;1.95;;;1.10;;
66727;SDS011;53641;44.274;19.890;2022-08-02T10:57:18;1.98;;;0.95;;
66727;SDS011;53641;44.274;19.890;2022-08-02T10:59:46;1.92;;;0.80;;
66727;SDS011;53641;44.274;19.890;2022-08-02T11:02:31;2.08;;;1.30;;
66727;SDS011;53641;44.274;19.890;2022-08-02T11:05:02;3.85;;;1.23;;
66727;SDS011;53641;44.274;19.890;2022-08-02T11:07:30;5.22;;;1.42;;
66727;SDS011;53641;44.274;19.890;2022-08-02T11:09:59;4.35;;;1.75;;
66727;SDS011;53641;44.274;19.890;2022-08-02T11:12:58;4.13;;;1.50;;
66727;SDS011;53641;44.274;19.890;2022-08-02T11:15:24;2.17;;;1.45;;
66727;SDS011;53641;44.274;19.890;2022-08-02T11:17:52;2.55;;;1.50;;
66727;SDS011;53641;44.274;19.890;2022-08-02T11:20:19;1.92;;;1.27;;
66727;SDS011;53641;44.274;19.890;2022-08-02T11:22:46;4.40;;;1.40;;
66727;SDS011;53641;44.274;19.890;2022-08-02T11:25:30;1.75;;;1.15;;
66727;SDS011;53641;44.274;19.890;2022-08-02T11:27:58;3.20;;;1.48;;
66727;SDS011;53641;44.274;19.890;2022-08-02T11:30:31;1.73;;;1.48;;
66727;SDS011;53641;44.274;19.890;2022-08-02T11:32:58;1.60;;;1.05;;
66727;SDS011;53641;44.274;19.890;2022-08-02T11:35:32;2.10;;;1.30;;
66727;SDS011;53641;44.274;19.890;2022-08-02T11:38:10;1.98;;;1.38;;
66727;SDS011;53641;44.274;19.890;2022-08-02T11:40:37;2.47;;;1.20;;
66727;SDS011;53641;44.274;19.890;2022-08-02T11:43:02;7.93;;;1.40;;
66727;SDS011;53641;44.274;19.890;2022-08-02T11:45:28;1.77;;;1.13;;
66727;SDS011;53641;44.274;19.890;2022-08-02T11:47:54;1.98;;;1.20;;
66727;SDS011;53641;44.274;19.890;2022-08-02T11:50:20;8.30;;;1.17;;
66727;SDS011;53641;44.274;19.890;2022-08-02T11:55:25;3.93;;;1.10;;
66727;SDS011;53641;44.274;19.890;2022-08-02T11:57:59;2.78;;;1.13;;
66727;SDS011;53641;44.274;19.890;2022-08-02T12:00:25;4.00;;;1.02;;
66727;SDS011;53641;44.274;19.890;2022-08-02T12:02:51;1.77;;;1.10;;
66727;SDS011;53641;44.274;19.890;2022-08-02T12:05:18;2.30;;;1.30;;
66727;SDS011;53641;44.274;19.890;2022-08-02T12:10:17;3.13;;;1.27;;
66727;SDS011;53641;44.274;19.890;2022-08-02T12:12:47;1.88;;;1.10;;
66727;SDS011;53641;44.274;19.890;2022-08-02T12:15:14;2.13;;;1.33;;
66727;SDS011;53641;44.274;19.890;2022-08-02T12:17:55;1.83;;;1.25;;
66727;SDS011;53641;44.274;19.890;2022-08-02T12:20:41;4.70;;;1.13;;
66727;SDS011;53641;44.274;19.890;2022-08-02T12:23:07;2.83;;;1.38;;
66727;SDS011;53641;44.274;19.890;2022-08-02T12:25:33;3.03;;;1.27;;
66727;SDS011;53641;44.274;19.890;2022-08-02T12:28:12;4.57;;;1.50;;
66727;SDS011;53641;44.274;19.890;2022-08-02T12:30:49;2.40;;;1.33;;
66727;SDS011;53641;44.274;19.890;2022-08-02T12:33:19;1.58;;;1.23;;
66727;SDS011;53641;44.274;19.890;2022-08-02T12:35:46;3.80;;;1.27;;
66727;SDS011;53641;44.274;19.890;2022-08-02T12:38:12;2.13;;;1.20;;
66727;SDS011;53641;44.274;19.890;2022-08-02T12:40:38;3.63;;;1.52;;
66727;SDS011;53641;44.274;19.890;2022-08-02T12:43:04;1.92;;;1.20;;
66727;SDS011;53641;44.274;19.890;2022-08-02T12:45:43;2.38;;;1.52;;
66727;SDS011;53641;44.274;19.890;2022-08-02T12:48:10;2.10;;;1.33;;
66727;SDS011;53641;44.274;19.890;2022-08-02T12:50:36;6.30;;;1.58;;
66727;SDS011;53641;44.274;19.890;2022-08-02T12:53:10;1.75;;;1.00;;
66727;SDS011;53641;44.274;19.890;2022-08-02T12:55:50;2.53;;;1.17;;
66727;SDS011;53641;44.274;19.890;2022-08-02T12:58:18;2.63;;;1.20;;
66727;SDS011;53641;44.274;19.890;2022-08-02T13:00:50;2.25;;;1.38;;
66727;SDS011;53641;44.274;19.890;2022-08-02T13:03:24;5.35;;;1.48;;
66727;SDS011;53641;44.274;19.890;2022-08-02T13:05:50;2.10;;;1.45;;
66727;SDS011;53641;44.274;19.890;2022-08-02T13:08:16;2.40;;;1.30;;
66727;SDS011;53641;44.274;19.890;2022-08-02T13:10:42;2.13;;;0.95;;
66727;SDS011;53641;44.274;19.890;2022-08-02T13:13:08;2.40;;;1.20;;
66727;SDS011;53641;44.274;19.890;2022-08-02T13:15:34;1.88;;;1.13;;
66727;SDS011;53641;44.274;19.890;2022-08-02T13:18:00;2.25;;;1.10;;
66727;SDS011;53641;44.274;19.890;2022-08-02T13:25:37;1.75;;;1.30;;
66727;SDS011;53641;44.274;19.890;2022-08-02T13:28:05;8.05;;;1.40;;
66727;SDS011;53641;44.274;19.890;2022-08-02T13:30:31;2.28;;;1.40;;
66727;SDS011;53641;44.274;19.890;2022-08-02T13:32:58;3.08;;;1.30;;
66727;SDS011;53641;44.274;19.890;2022-08-02T13:35:23;2.83;;;1.50;;
66727;SDS011;53641;44.274;19.890;2022-08-02T13:37:49;3.30;;;1.33;;
66727;SDS011;53641;44.274;19.890;2022-08-02T13:40:18;2.85;;;1.17;;
66727;SDS011;53641;44.274;19.890;2022-08-02T13:42:44;3.00;;;1.38;;
66727;SDS011;53641;44.274;19.890;2022-08-02T13:45:10;2.35;;;1.60;;
66727;SDS011;53641;44.274;19.890;2022-08-02T13:47:37;2.28;;;1.10;;
66727;SDS011;53641;44.274;19.890;2022-08-02T13:50:03;8.10;;;1.20;;
66727;SDS011;53641;44.274;19.890;2022-08-02T13:52:29;3.45;;;1.30;;
66727;SDS011;53641;44.274;19.890;2022-08-02T13:54:58;2.63;;;1.50;;
66727;SDS011;53641;44.274;19.890;2022-08-02T13:57:24;3.72;;;1.20;;
66727;SDS011;53641;44.274;19.890;2022-08-02T13:59:50;1.73;;;1.10;;
66727;SDS011;53641;44.274;19.890;2022-08-02T14:02:15;3.50;;;1.30;;
66727;SDS011;53641;44.274;19.890;2022-08-02T14:04:41;4.07;;;1.23;;
66727;SDS011;53641;44.274;19.890;2022-08-02T14:07:07;3.13;;;1.20;;
66727;SDS011;53641;44.274;19.890;2022-08-02T14:09:33;2.95;;;1.58;;
66727;SDS011;53641;44.274;19.890;2022-08-02T14:12:02;5.28;;;1.50;;
66727;SDS011;53641;44.274;19.890;2022-08-02T14:14:30;4.28;;;1.50;;
66727;SDS011;53641;44.274;19.890;2022-08-02T14:16:56;2.40;;;1.60;;
66727;SDS011;53641;44.274;19.890;2022-08-02T14:19:22;3.92;;;1.40;;
66727;SDS011;53641;44.274;19.890;2022-08-02T14:21:48;12.50;;;1.38;;
66727;SDS011;53641;44.274;19.890;2022-08-02T14:24:15;14.27;;;1.40;;
66727;SDS011;53641;44.274;19.890;2022-08-02T14:26:42;3.13;;;1.20;;
66727;SDS011;53641;44.274;19.890;2022-08-02T14:29:08;2.65;;;1.13;;
66727;SDS011;53641;44.274;19.890;2022-08-02T14:31:34;5.53;;;1.83;;
66727;SDS011;53641;44.274;19.890;2022-08-02T14:34:00;3.33;;;1.35;;
66727;SDS011;53641;44.274;19.890;2022-08-02T14:36:27;3.20;;;1.25;;
66727;SDS011;53641;44.274;19.890;2022-08-02T14:38:54;1.98;;;1.10;;
66727;SDS011;53641;44.274;19.890;2022-08-02T14:41:20;1.70;;;1.02;;
66727;SDS011;53641;44.274;19.890;2022-08-02T14:43:46;2.15;;;1.10;;
66727;SDS011;53641;44.274;19.890;2022-08-02T14:46:32;3.88;;;2.10;;
66727;SDS011;53641;44.274;19.890;2022-08-02T14:48:59;4.55;;;1.65;;
66727;SDS011;53641;44.274;19.890;2022-08-02T14:51:31;2.85;;;1.20;;
66727;SDS011;53641;44.274;19.890;2022-08-02T14:53:58;3.80;;;1.30;;
66727;SDS011;53641;44.274;19.890;2022-08-02T14:56:46;3.75;;;1.17;;
66727;SDS011;53641;44.274;19.890;2022-08-02T14:59:12;2.35;;;1.00;;
66727;SDS011;53641;44.274;19.890;2022-08-02T15:01:37;2.63;;;0.95;;
66727;SDS011;53641;44.274;19.890;2022-08-02T15:04:03;2.00;;;1.00;;
66727;SDS011;53641;44.274;19.890;2022-08-02T15:06:29;3.45;;;1.27;;
66727;SDS011;53641;44.274;19.890;2022-08-02T15:08:57;2.90;;;1.65;;
66727;SDS011;53641;44.274;19.890;2022-08-02T15:11:23;2.58;;;1.05;;